Pleasant Valley, Washington
Current Conditions -  °F | °C
As of 3:53 PM on Wednesday 26 Nov 2014 (Local Time) from KBLI Reporting Station
Overcast Overcast  
Wind Chill: 58°   Ceiling: 2400
Heat Index: 58°   Visibility: 10mi
Dew Point: 50°   Wind: 13mph
Humidity: 75%   Direction: 160°SSE
Pressure: 29.95"   Gusts: NA
Location:  48.8653°N, 122.636°W
Report Text: KBLI 262353Z 16011KT 10SM OVC024 14/10 A2995 RMK AO2 SLP149 T01440100 10144 20117 55012
Loading
Personal Weather Stations






























Interactive Weather Map New forecast layout! Learn more

10-Day Weather Forecast

Advertisements
Track Severe Weather on mobile